createdAt,value
2019-05-30T00:00:44.652Z,53.73
2019-05-30T00:03:15.253Z,53.77
2019-05-30T00:05:45.805Z,53.75
2019-05-30T00:08:16.301Z,53.78
2019-05-30T00:10:46.751Z,53.48
2019-05-30T00:13:17.319Z,53.67
2019-05-30T00:15:47.766Z,53.85
2019-05-30T00:18:18.232Z,53.58
2019-05-30T00:20:48.759Z,53.91
2019-05-30T00:23:19.251Z,53.19
2019-05-30T00:25:49.751Z,52.99
2019-05-30T00:28:20.208Z,52.63
2019-05-30T00:30:50.945Z,52.30
2019-05-30T00:33:21.476Z,51.84
2019-05-30T00:35:51.982Z,51.58
2019-05-30T00:38:22.431Z,51.05
2019-05-30T00:40:52.930Z,51.17
2019-05-30T00:43:23.524Z,51.04
2019-05-30T00:45:53.988Z,50.42
2019-05-30T00:48:24.493Z,50.56
2019-05-30T00:50:56.260Z,50.72
2019-05-30T00:53:26.960Z,50.64
2019-05-30T00:55:58.495Z,51.03
2019-05-30T00:58:29.089Z,50.91
2019-05-30T01:01:00.939Z,51.13
2019-05-30T01:03:31.533Z,51.15
2019-05-30T01:06:02.977Z,51.47
2019-05-30T01:08:33.580Z,51.51
2019-05-30T01:11:05.314Z,51.24
2019-05-30T01:13:35.829Z,50.98
2019-05-30T01:16:07.349Z,51.55
2019-05-30T01:18:37.955Z,51.70
2019-05-30T01:21:08.560Z,51.88
2019-05-30T01:23:44.029Z,51.72
2019-05-30T01:26:15.100Z,51.64
2019-05-30T01:28:45.569Z,51.81
2019-05-30T01:31:16.186Z,51.81
2019-05-30T01:33:46.632Z,51.42
2019-05-30T01:36:17.123Z,51.61
2019-05-30T01:38:47.586Z,51.40
2019-05-30T01:41:18.083Z,51.54
2019-05-30T01:43:48.536Z,51.37
2019-05-30T01:46:18.999Z,51.10
2019-05-30T01:48:49.489Z,51.08
2019-05-30T01:51:20.095Z,50.87
2019-05-30T01:53:50.576Z,50.96
2019-05-30T01:56:21.125Z,51.14
2019-05-30T01:58:51.593Z,51.12
2019-05-30T02:01:24.952Z,51.17
2019-05-30T02:03:54.235Z,51.07
2019-05-30T02:06:24.817Z,50.58
2019-05-30T02:08:55.293Z,50.14
2019-05-30T02:11:25.887Z,50.29
2019-05-30T02:13:56.338Z,50.01
2019-05-30T02:16:26.836Z,49.80
2019-05-30T02:18:57.280Z,49.78
2019-05-30T02:21:27.758Z,49.66
2019-05-30T02:23:58.252Z,49.42
2019-05-30T02:26:28.698Z,49.55
2019-05-30T02:28:59.957Z,49.19
2019-05-30T02:31:39.074Z,49.38
2019-05-30T02:34:03.001Z,49.38
2019-05-30T02:36:34.156Z,49.67
2019-05-30T02:39:07.397Z,49.87
2019-05-30T02:41:38.457Z,50.07
2019-05-30T02:44:10.250Z,50.44
2019-05-30T02:46:41.245Z,50.57
2019-05-30T02:49:13.887Z,50.53
2019-05-30T02:51:43.943Z,50.48
2019-05-30T02:54:14.405Z,50.34
2019-05-30T02:56:44.887Z,50.34
2019-05-30T02:59:15.330Z,50.16
2019-05-30T03:02:00.034Z,49.90
2019-05-30T03:04:17.979Z,49.86
2019-05-30T03:06:48.446Z,49.93
2019-05-30T03:09:19.053Z,49.88
2019-05-30T03:11:49.826Z,49.85
2019-05-30T03:14:20.502Z,49.77
2019-05-30T03:16:50.957Z,49.27
2019-05-30T03:19:21.573Z,49.62
2019-05-30T03:21:52.032Z,49.32
2019-05-30T03:24:22.649Z,49.13
2019-05-30T03:26:53.210Z,49.15
2019-05-30T03:29:23.868Z,48.89
2019-05-30T03:31:55.244Z,48.61
2019-05-30T03:34:28.762Z,48.44
2019-05-30T03:36:58.198Z,48.34
2019-05-30T03:39:28.790Z,48.28
2019-05-30T03:41:59.593Z,48.26
2019-05-30T03:44:30.034Z,48.06
2019-05-30T03:47:03.950Z,47.57
2019-05-30T03:49:37.411Z,47.57
2019-05-30T03:52:12.962Z,47.46
2019-05-30T03:54:43.310Z,47.25
2019-05-30T03:57:23.180Z,46.54
2019-05-30T04:00:00.057Z,45.91
2019-05-30T04:02:58.362Z,45.53
2019-05-30T04:05:31.221Z,44.95
2019-05-30T04:08:04.749Z,44.61
2019-05-30T04:10:39.230Z,44.25
2019-05-30T04:13:24.257Z,43.58
2019-05-30T04:15:54.731Z,43.48
2019-05-30T04:18:25.218Z,42.69
2019-05-30T04:20:55.683Z,41.79
2019-05-30T04:23:26.192Z,41.64
2019-05-30T04:26:00.272Z,41.59
2019-05-30T04:28:28.837Z,40.68
2019-05-30T04:30:59.304Z,40.10
2019-05-30T04:33:33.461Z,40.28
2019-05-30T04:36:02.022Z,39.88
2019-05-30T04:38:32.487Z,39.00
2019-05-30T04:41:03.013Z,38.66
2019-05-30T04:43:33.491Z,37.91
2019-05-30T04:46:03.992Z,37.53
2019-05-30T04:48:34.484Z,36.88
2019-05-30T04:51:05.192Z,36.87
2019-05-30T04:53:35.703Z,35.90
2019-05-30T04:56:06.296Z,35.32
2019-05-30T04:58:41.505Z,35.16
2019-05-30T05:01:09.150Z,35.12
2019-05-30T05:03:45.722Z,35.34
2019-05-30T05:06:13.786Z,34.93
2019-05-30T05:08:44.671Z,34.85
2019-05-30T05:11:18.704Z,35.74
2019-05-30T05:13:47.426Z,35.21
2019-05-30T05:16:26.090Z,35.76
2019-05-30T05:18:50.084Z,35.27
2019-05-30T05:21:21.016Z,35.30
2019-05-30T05:23:51.549Z,34.49
2019-05-30T05:26:22.075Z,34.12
2019-05-30T05:28:52.580Z,33.91
2019-05-30T05:31:24.433Z,33.86
2019-05-30T05:33:57.011Z,33.81
2019-05-30T05:36:27.162Z,34.13
2019-05-30T05:38:57.674Z,33.72
2019-05-30T05:41:28.612Z,33.57
2019-05-30T05:43:59.126Z,33.54
2019-05-30T05:46:29.602Z,33.09
2019-05-30T05:49:00.205Z,33.83
2019-05-30T05:51:30.744Z,33.05
2019-05-30T05:54:01.230Z,32.83
2019-05-30T05:56:31.756Z,32.98
2019-05-30T05:59:02.261Z,33.19
2019-05-30T06:01:32.753Z,32.84
2019-05-30T06:04:12.805Z,32.86
2019-05-30T06:06:35.508Z,32.20
2019-05-30T06:09:06.830Z,31.69
2019-05-30T06:11:37.330Z,31.81
2019-05-30T06:14:07.785Z,31.65
2019-05-30T06:16:38.408Z,31.21
2019-05-30T06:19:09.022Z,31.28
2019-05-30T06:21:52.982Z,31.13
2019-05-30T06:24:11.833Z,31.25
2019-05-30T06:26:42.335Z,31.48
2019-05-30T06:29:12.852Z,32.31
2019-05-30T06:31:43.328Z,31.57
2019-05-30T06:34:28.148Z,31.69
2019-05-30T06:36:45.996Z,31.69
2019-05-30T06:39:16.456Z,31.33
2019-05-30T06:41:46.966Z,31.60
2019-05-30T06:44:17.430Z,31.54
2019-05-30T06:46:47.950Z,31.37
2019-05-30T06:49:18.430Z,30.90
2019-05-30T06:51:48.915Z,31.08
2019-05-30T06:54:19.405Z,30.92
2019-05-30T06:56:50.023Z,30.75
2019-05-30T06:59:21.391Z,30.81
2019-05-30T07:01:52.387Z,30.50
2019-05-30T07:04:23.823Z,30.92
2019-05-30T07:06:55.346Z,30.85
2019-05-30T07:09:26.816Z,30.54
2019-05-30T07:11:57.426Z,30.50
2019-05-30T07:14:29.233Z,30.86
2019-05-30T07:16:59.874Z,31.00
2019-05-30T07:19:31.567Z,30.71
2019-05-30T07:22:02.238Z,30.08
2019-05-30T07:24:33.750Z,30.29
2019-05-30T07:27:04.608Z,30.45
2019-05-30T07:29:35.116Z,30.28
2019-05-30T07:32:05.812Z,30.75
2019-05-30T07:34:36.525Z,30.75
2019-05-30T07:37:06.977Z,31.29
2019-05-30T07:39:37.708Z,30.63
2019-05-30T07:42:08.332Z,30.94
2019-05-30T07:44:38.796Z,30.94
2019-05-30T07:47:09.512Z,30.42
2019-05-30T07:49:40.021Z,31.02
2019-05-30T07:52:11.771Z,30.90
2019-05-30T07:54:42.425Z,30.67
2019-05-30T07:57:12.909Z,30.41
2019-05-30T07:59:43.382Z,31.48
2019-05-30T08:02:13.889Z,31.48
2019-05-30T08:04:46.876Z,32.07
2019-05-30T08:07:16.597Z,32.13
2019-05-30T08:09:47.185Z,32.24
2019-05-30T08:12:17.661Z,31.57
2019-05-30T08:14:49.697Z,31.71
2019-05-30T08:17:20.159Z,31.13
2019-05-30T08:19:50.685Z,31.13
2019-05-30T08:22:21.200Z,31.27
2019-05-30T08:24:51.699Z,31.52
2019-05-30T08:27:22.171Z,31.57
2019-05-30T08:29:52.700Z,31.62
2019-05-30T08:32:23.269Z,31.06
2019-05-30T08:34:53.777Z,30.54
2019-05-30T08:37:24.516Z,30.32
2019-05-30T08:39:55.155Z,30.09
2019-05-30T08:42:27.885Z,29.96
2019-05-30T08:44:57.863Z,29.66
2019-05-30T08:47:29.714Z,29.48
2019-05-30T08:50:00.340Z,29.45
2019-05-30T08:52:32.305Z,29.33
2019-05-30T08:55:02.885Z,29.21
2019-05-30T08:57:34.920Z,29.28
2019-05-30T09:00:07.034Z,28.90
2019-05-30T09:02:38.693Z,28.88
2019-05-30T09:05:10.022Z,29.51
2019-05-30T09:07:40.542Z,29.33
2019-05-30T09:10:11.758Z,28.81
2019-05-30T09:12:45.515Z,28.75
2019-05-30T09:15:15.253Z,28.27
2019-05-30T09:17:46.783Z,28.25
2019-05-30T09:20:17.858Z,28.20
2019-05-30T09:22:48.359Z,28.55
2019-05-30T09:25:19.372Z,28.47
2019-05-30T09:27:49.883Z,28.49
2019-05-30T09:30:22.545Z,28.46
2019-05-30T09:32:53.026Z,27.92
2019-05-30T09:35:23.728Z,28.04
2019-05-30T09:37:54.188Z,27.85
2019-05-30T09:40:25.319Z,27.78
2019-05-30T09:42:55.810Z,28.17
2019-05-30T09:45:26.636Z,27.81
2019-05-30T09:47:57.122Z,27.30
2019-05-30T09:50:27.804Z,27.09
2019-05-30T09:52:58.302Z,26.52
2019-05-30T09:55:29.038Z,26.90
2019-05-30T09:57:59.620Z,27.41
2019-05-30T10:00:32.432Z,26.85
2019-05-30T10:03:03.024Z,26.51
2019-05-30T10:05:33.578Z,26.77
2019-05-30T10:08:04.060Z,26.73
2019-05-30T10:10:34.738Z,26.87
2019-05-30T10:13:05.358Z,26.75
2019-05-30T10:15:35.933Z,26.90
2019-05-30T10:18:06.554Z,26.53
2019-05-30T10:20:38.221Z,26.56
2019-05-30T10:23:08.743Z,26.77
2019-05-30T10:25:39.196Z,26.80
2019-05-30T10:28:09.710Z,27.13
2019-05-30T10:30:40.302Z,27.04
2019-05-30T10:33:10.774Z,26.77
2019-05-30T10:35:41.297Z,26.71
2019-05-30T10:38:11.764Z,26.76
2019-05-30T10:40:42.413Z,27.10
2019-05-30T10:43:12.883Z,27.41
2019-05-30T10:45:43.419Z,27.83
2019-05-30T10:48:14.000Z,27.34
2019-05-30T10:50:44.615Z,27.52
2019-05-30T10:53:15.284Z,27.12
2019-05-30T10:55:47.067Z,27.60
2019-05-30T10:58:18.112Z,26.43
2019-05-30T11:00:53.477Z,26.32
2019-05-30T11:03:25.629Z,26.29
2019-05-30T11:06:14.763Z,26.55
2019-05-30T11:08:46.188Z,26.47
2019-05-30T11:11:18.265Z,25.79
2019-05-30T11:13:48.999Z,26.25
2019-05-30T11:16:19.462Z,26.36
2019-05-30T11:18:51.394Z,25.52
2019-05-30T11:21:22.264Z,25.79
2019-05-30T11:23:52.767Z,26.02
2019-05-30T11:26:23.235Z,26.15
2019-05-30T11:28:54.782Z,25.93
2019-05-30T11:31:25.298Z,26.53
2019-05-30T11:33:57.155Z,26.12
2019-05-30T11:36:27.655Z,26.14
2019-05-30T11:38:59.397Z,26.41
2019-05-30T11:41:29.984Z,26.42
2019-05-30T11:44:03.967Z,25.89
2019-05-30T11:46:32.709Z,25.92
2019-05-30T11:49:03.573Z,25.98
2019-05-30T11:51:34.081Z,26.27
2019-05-30T11:54:05.024Z,26.15
2019-05-30T11:56:36.025Z,25.95
2019-05-30T11:59:06.979Z,26.31
2019-05-30T12:01:37.483Z,26.32
2019-05-30T12:04:07.950Z,26.52
2019-05-30T12:06:38.471Z,26.75
2019-05-30T12:09:09.468Z,27.64
2019-05-30T12:11:39.976Z,27.62
2019-05-30T12:14:10.484Z,27.41
2019-05-30T12:16:40.940Z,27.71
2019-05-30T12:19:11.869Z,27.48
2019-05-30T12:21:42.997Z,27.12
2019-05-30T12:24:13.459Z,27.04
2019-05-30T12:26:43.958Z,27.47
2019-05-30T12:29:14.488Z,27.37
2019-05-30T12:31:45.094Z,27.51
2019-05-30T12:34:15.557Z,27.66
2019-05-30T12:36:46.072Z,27.28
2019-05-30T12:39:16.552Z,27.40
2019-05-30T12:41:47.064Z,27.36
2019-05-30T12:44:17.572Z,27.56
2019-05-30T12:46:48.069Z,27.84
2019-05-30T12:49:19.283Z,27.32
2019-05-30T12:51:50.451Z,27.31
2019-05-30T12:54:21.463Z,27.69
2019-05-30T12:56:52.602Z,28.94
2019-05-30T12:59:23.273Z,28.96
2019-05-30T13:01:54.801Z,28.40
2019-05-30T13:04:25.397Z,28.88
2019-05-30T13:06:57.593Z,28.43
2019-05-30T13:09:28.157Z,28.78
2019-05-30T13:11:58.647Z,27.79
2019-05-30T13:14:29.203Z,28.15
2019-05-30T13:16:59.865Z,28.10
2019-05-30T13:19:30.329Z,28.43
2019-05-30T13:22:01.382Z,28.09
2019-05-30T13:24:32.103Z,28.17
2019-05-30T13:27:03.786Z,28.30
2019-05-30T13:29:34.441Z,28.57
2019-05-30T13:32:05.183Z,28.62
2019-05-30T13:34:35.758Z,28.68
2019-05-30T13:37:07.176Z,28.58
2019-05-30T13:39:37.715Z,28.23
2019-05-30T13:42:08.205Z,28.68
2019-05-30T13:44:38.801Z,28.71
2019-05-30T13:47:09.374Z,28.92
2019-05-30T13:49:39.858Z,28.91
2019-05-30T13:52:11.249Z,29.52
2019-05-30T13:54:41.734Z,29.52
2019-05-30T13:57:12.212Z,29.00
2019-05-30T13:59:42.672Z,28.87
2019-05-30T14:02:13.176Z,28.91
2019-05-30T14:04:43.700Z,29.01
2019-05-30T14:07:15.594Z,28.81
2019-05-30T14:09:46.161Z,28.79
2019-05-30T14:12:16.692Z,28.71
2019-05-30T14:14:47.176Z,29.18
2019-05-30T14:17:17.717Z,29.31
2019-05-30T14:19:48.280Z,29.24
2019-05-30T14:22:18.788Z,29.05
2019-05-30T14:24:49.303Z,28.83
2019-05-30T14:27:19.932Z,28.89
2019-05-30T14:29:50.420Z,29.47
2019-05-30T14:32:21.046Z,29.55
2019-05-30T14:34:51.553Z,29.82
2019-05-30T14:37:22.076Z,29.64
2019-05-30T14:39:52.538Z,29.39
2019-05-30T14:42:23.037Z,29.37
2019-05-30T14:44:53.530Z,29.44
2019-05-30T14:47:23.980Z,29.08
2019-05-30T14:49:54.439Z,29.33
2019-05-30T14:52:24.949Z,29.10
2019-05-30T14:54:55.445Z,29.13
2019-05-30T14:57:25.921Z,29.13
2019-05-30T14:59:56.420Z,29.40
2019-05-30T15:02:26.921Z,29.73
2019-05-30T15:04:57.415Z,29.86
2019-05-30T15:07:27.873Z,29.76
2019-05-30T15:09:58.385Z,29.71
2019-05-30T15:12:28.844Z,30.06
2019-05-30T15:14:59.333Z,30.25
2019-05-30T15:17:29.788Z,30.73
2019-05-30T15:20:00.280Z,31.05
2019-05-30T15:22:30.739Z,30.94
2019-05-30T15:25:01.260Z,30.78
2019-05-30T15:27:31.747Z,30.98
2019-05-30T15:30:02.272Z,31.43
2019-05-30T15:32:32.788Z,31.33
2019-05-30T15:35:03.256Z,30.94
2019-05-30T15:37:33.715Z,31.02
2019-05-30T15:40:04.275Z,31.18
2019-05-30T15:42:34.755Z,31.85
2019-05-30T15:45:06.061Z,31.88
2019-05-30T15:47:36.511Z,32.77
2019-05-30T15:50:08.319Z,32.34
2019-05-30T15:52:39.133Z,32.65
2019-05-30T15:55:11.177Z,32.68
2019-05-30T15:57:41.855Z,32.69
2019-05-30T16:00:14.092Z,33.09
2019-05-30T16:02:44.785Z,33.24
2019-05-30T16:05:16.694Z,33.53
2019-05-30T16:07:47.303Z,33.41
2019-05-30T16:10:18.973Z,33.78
2019-05-30T16:12:49.451Z,33.04
2019-05-30T16:15:19.940Z,33.34
2019-05-30T16:17:50.491Z,33.11
2019-05-30T16:20:22.037Z,33.04
2019-05-30T16:22:52.554Z,33.09
2019-05-30T16:25:23.018Z,32.93
2019-05-30T16:27:53.512Z,33.59
2019-05-30T16:30:26.048Z,33.84
2019-05-30T16:32:56.461Z,34.18
2019-05-30T16:35:26.919Z,34.11
2019-05-30T16:37:57.412Z,33.91
2019-05-30T16:40:27.868Z,33.43
2019-05-30T16:42:58.454Z,33.30
2019-05-30T16:45:28.904Z,33.31
2019-05-30T16:47:59.367Z,33.38
2019-05-30T16:50:29.853Z,33.54
2019-05-30T16:53:00.308Z,33.53
2019-05-30T16:55:30.809Z,33.77
2019-05-30T16:58:01.363Z,34.10
2019-05-30T17:00:31.821Z,34.33
2019-05-30T17:03:02.308Z,34.33
2019-05-30T17:05:32.776Z,34.89
2019-05-30T17:08:03.239Z,34.89
2019-05-30T17:10:33.859Z,34.75
2019-05-30T17:13:04.419Z,34.88
2019-05-30T17:15:35.007Z,35.39
2019-05-30T17:18:05.755Z,35.39
2019-05-30T17:20:36.243Z,35.66
2019-05-30T17:23:06.718Z,35.55
2019-05-30T17:25:37.198Z,35.63
2019-05-30T17:28:07.662Z,35.70
2019-05-30T17:30:38.157Z,35.69
2019-05-30T17:33:08.596Z,35.70
2019-05-30T17:35:39.200Z,35.85
2019-05-30T17:38:09.647Z,35.80
2019-05-30T17:40:45.055Z,36.26
2019-05-30T17:43:12.322Z,36.97
2019-05-30T17:45:42.830Z,39.21
2019-05-30T17:48:16.533Z,41.62
2019-05-30T17:50:45.496Z,44.58
2019-05-30T17:53:16.231Z,46.29
2019-05-30T17:55:46.704Z,51.90
2019-05-30T17:58:17.215Z,59.77
2019-05-30T18:00:47.700Z,59.81
2019-05-30T18:03:18.257Z,59.44
2019-05-30T18:05:48.737Z,61.85
2019-05-30T18:08:19.202Z,62.82
2019-05-30T18:10:53.775Z,64.42
2019-05-30T18:13:22.829Z,66.27
2019-05-30T18:15:53.532Z,65.20
2019-05-30T18:18:25.205Z,66.56
2019-05-30T18:20:55.812Z,67.88
2019-05-30T18:23:27.499Z,65.56
2019-05-30T18:25:58.021Z,65.80
2019-05-30T18:28:27.829Z,64.84
2019-05-30T18:30:58.309Z,62.89
2019-05-30T18:33:28.752Z,61.01
2019-05-30T18:35:59.868Z,61.92
2019-05-30T18:38:30.542Z,61.34
2019-05-30T18:41:11.040Z,57.66
2019-05-30T18:43:33.358Z,57.08
2019-05-30T18:46:03.859Z,55.97
2019-05-30T18:48:34.314Z,56.96
2019-05-30T18:51:04.920Z,55.52
2019-05-30T18:53:36.645Z,57.48
2019-05-30T18:56:07.392Z,59.32
2019-05-30T18:58:37.895Z,59.76
2019-05-30T19:01:08.404Z,62.47
2019-05-30T19:03:38.883Z,60.61
2019-05-30T19:06:09.497Z,60.66
2019-05-30T19:08:39.973Z,61.25
2019-05-30T19:11:26.383Z,61.65
2019-05-30T19:13:42.603Z,61.04
2019-05-30T19:16:13.093Z,62.45
2019-05-30T19:18:43.536Z,62.61
2019-05-30T19:21:14.025Z,62.34
2019-05-30T19:23:44.488Z,62.44
2019-05-30T19:26:14.982Z,62.34
2019-05-30T19:28:45.430Z,62.27
2019-05-30T19:31:16.022Z,62.38
2019-05-30T19:33:46.468Z,63.04
2019-05-30T19:36:17.045Z,63.32
2019-05-30T19:38:47.496Z,64.71
2019-05-30T19:41:17.976Z,63.92
2019-05-30T19:43:48.440Z,63.73
2019-05-30T19:46:18.936Z,63.50
2019-05-30T19:48:49.401Z,64.03
2019-05-30T19:51:21.090Z,63.44
2019-05-30T19:53:51.655Z,63.13
2019-05-30T19:56:22.167Z,62.31
2019-05-30T19:58:52.696Z,62.82
2019-05-30T20:01:23.196Z,62.18
2019-05-30T20:03:53.650Z,62.39
2019-05-30T20:06:24.977Z,61.41
2019-05-30T20:08:56.133Z,61.05
2019-05-30T20:11:26.627Z,61.76
2019-05-30T20:13:57.073Z,62.01
2019-05-30T20:16:27.533Z,62.38
2019-05-30T20:18:58.022Z,63.33
2019-05-30T20:21:28.516Z,63.97
2019-05-30T20:23:59.627Z,63.79
2019-05-30T20:26:30.241Z,63.30
2019-05-30T20:29:00.731Z,64.97
2019-05-30T20:31:31.211Z,64.43
2019-05-30T20:34:01.702Z,65.34
2019-05-30T20:36:32.149Z,65.41
2019-05-30T20:39:02.645Z,64.88
2019-05-30T20:41:33.150Z,64.51
2019-05-30T20:44:03.709Z,64.61
2019-05-30T20:46:34.837Z,64.62
2019-05-30T20:49:07.022Z,64.22
2019-05-30T20:51:38.679Z,64.32
2019-05-30T20:54:09.689Z,64.38
2019-05-30T20:56:41.437Z,64.69
2019-05-30T20:59:12.011Z,65.93
2019-05-30T21:01:43.771Z,66.54
2019-05-30T21:04:14.312Z,65.59
2019-05-30T21:06:45.531Z,65.84
2019-05-30T21:09:28.357Z,65.92
2019-05-30T21:11:51.724Z,65.40
2019-05-30T21:14:27.430Z,65.58
2019-05-30T21:16:56.768Z,66.53
2019-05-30T21:19:27.216Z,66.98
2019-05-30T21:21:57.631Z,66.38
2019-05-30T21:24:28.182Z,67.05
2019-05-30T21:26:58.590Z,68.04
2019-05-30T21:29:29.052Z,68.53
2019-05-30T21:31:59.499Z,68.78
2019-05-30T21:34:30.013Z,68.11
2019-05-30T21:37:00.427Z,67.89
2019-05-30T21:39:31.123Z,68.63
2019-05-30T21:42:01.568Z,67.87
2019-05-30T21:44:31.986Z,66.44
2019-05-30T21:47:02.441Z,65.95
2019-05-30T21:49:32.872Z,65.78
2019-05-30T21:52:03.278Z,66.01
2019-05-30T21:54:33.686Z,65.83
2019-05-30T21:57:04.194Z,65.91
2019-05-30T21:59:34.735Z,65.18
2019-05-30T22:02:05.287Z,64.98
2019-05-30T22:04:35.790Z,65.84
2019-05-30T22:07:06.210Z,65.51
2019-05-30T22:09:36.636Z,65.32
2019-05-30T22:12:07.186Z,65.50
2019-05-30T22:14:37.686Z,66.77
2019-05-30T22:17:08.186Z,66.73
2019-05-30T22:19:38.651Z,66.10
2019-05-30T22:22:09.120Z,65.53
2019-05-30T22:24:39.544Z,65.84
2019-05-30T22:27:10.050Z,65.10
2019-05-30T22:29:40.609Z,64.70
2019-05-30T22:32:11.088Z,64.88
2019-05-30T22:34:42.729Z,65.12
2019-05-30T22:37:14.271Z,65.16
2019-05-30T22:39:44.887Z,65.95
2019-05-30T22:42:15.287Z,65.72
2019-05-30T22:44:46.041Z,66.21
2019-05-30T22:47:16.535Z,66.16
2019-05-30T22:49:46.933Z,65.37
2019-05-30T22:52:17.457Z,63.97
2019-05-30T22:54:49.000Z,63.02
2019-05-30T22:57:19.713Z,61.85
2019-05-30T22:59:50.961Z,59.76
2019-05-30T23:02:21.472Z,61.04
2019-05-30T23:04:52.276Z,62.63
2019-05-30T23:07:22.786Z,65.16
2019-05-30T23:09:53.993Z,66.23
2019-05-30T23:12:24.522Z,66.31
2019-05-30T23:14:54.983Z,66.08
2019-05-30T23:17:25.494Z,64.00
2019-05-30T23:19:56.871Z,63.32
2019-05-30T23:22:27.352Z,60.03
2019-05-30T23:24:57.831Z,59.83
2019-05-30T23:27:28.283Z,59.77
2019-05-30T23:29:58.758Z,59.80
2019-05-30T23:32:29.237Z,60.15
2019-05-30T23:34:59.699Z,62.04
2019-05-30T23:37:30.157Z,60.68
2019-05-30T23:40:00.660Z,61.37
2019-05-30T23:42:31.143Z,60.91
2019-05-30T23:45:01.606Z,61.90
2019-05-30T23:47:32.180Z,62.36
2019-05-30T23:50:02.724Z,63.05
2019-05-30T23:52:33.171Z,63.43
2019-05-30T23:55:03.761Z,63.85
2019-05-30T23:57:34.202Z,63.64
